createdAt,value
2018-07-27T00:03:39.437Z,22.00
2018-07-27T00:08:42.495Z,21.90
2018-07-27T00:13:45.607Z,21.90
2018-07-27T00:18:48.653Z,21.80
2018-07-27T00:23:51.715Z,21.70
2018-07-27T00:28:54.763Z,21.60
2018-07-27T00:33:57.916Z,21.60
2018-07-27T00:44:03.916Z,21.40
2018-07-27T00:49:07.005Z,21.40
2018-07-27T00:54:10.081Z,21.30
2018-07-27T00:59:13.159Z,21.30
2018-07-27T01:04:16.177Z,21.20
2018-07-27T01:09:19.250Z,21.20
2018-07-27T01:14:22.328Z,21.10
2018-07-27T01:19:25.427Z,21.10
2018-07-27T01:24:28.505Z,21.00
2018-07-27T01:29:31.561Z,21.00
2018-07-27T01:34:34.641Z,20.90
2018-07-27T01:39:37.742Z,20.80
2018-07-27T01:44:40.873Z,20.80
2018-07-27T01:49:43.989Z,20.80
2018-07-27T01:54:47.140Z,20.70
2018-07-27T01:59:50.266Z,20.70
2018-07-27T02:04:53.324Z,20.70
2018-07-27T02:09:56.394Z,20.60
2018-07-27T02:14:59.473Z,20.60
2018-07-27T02:20:02.575Z,20.60
2018-07-27T02:25:05.800Z,20.50
2018-07-27T02:30:08.879Z,20.50
2018-07-27T02:35:11.940Z,20.50
2018-07-27T02:40:14.987Z,20.50
2018-07-27T02:45:18.040Z,20.50
2018-07-27T02:50:21.146Z,20.50
2018-07-27T02:55:24.208Z,20.40
2018-07-27T03:00:27.326Z,20.40
2018-07-27T03:05:30.488Z,20.40
2018-07-27T03:10:33.553Z,20.40
2018-07-27T03:20:46.077Z,20.40
2018-07-27T03:25:49.201Z,20.40
2018-07-27T03:30:52.364Z,20.40
2018-07-27T03:35:55.765Z,20.30
2018-07-27T03:40:58.924Z,20.30
2018-07-27T03:46:02.091Z,20.40
2018-07-27T03:51:05.229Z,20.40
2018-07-27T03:56:08.374Z,20.40
2018-07-27T04:01:11.380Z,20.50
2018-07-27T04:06:14.480Z,20.50
2018-07-27T04:11:17.651Z,20.50
2018-07-27T04:16:20.683Z,20.50
2018-07-27T04:21:23.736Z,20.60
2018-07-27T04:26:27.039Z,20.60
2018-07-27T04:31:29.939Z,20.70
2018-07-27T04:36:33.011Z,20.80
2018-07-27T04:41:36.121Z,20.90
2018-07-27T04:46:39.194Z,21.00
2018-07-27T04:51:42.273Z,21.10
2018-07-27T04:56:45.370Z,21.30
2018-07-27T05:01:48.402Z,21.40
2018-07-27T05:06:51.448Z,21.40
2018-07-27T05:11:54.526Z,21.60
2018-07-27T05:16:57.624Z,21.80
2018-07-27T05:22:00.687Z,22.00
2018-07-27T05:27:03.734Z,22.10
2018-07-27T05:32:06.832Z,22.30
2018-07-27T05:37:09.896Z,22.40
2018-07-27T05:42:12.936Z,22.60
2018-07-27T05:47:16.064Z,22.70
2018-07-27T05:52:19.079Z,23.00
2018-07-27T05:57:22.185Z,23.30
2018-07-27T06:02:25.257Z,23.40
2018-07-27T06:07:28.340Z,23.70
2018-07-27T06:12:31.544Z,24.10
2018-07-27T06:24:02.098Z,25.40
2018-07-27T06:29:05.171Z,27.00
2018-07-27T06:34:08.231Z,27.70
2018-07-27T06:39:11.932Z,28.40
2018-07-27T06:44:14.957Z,28.50
2018-07-27T06:49:18.017Z,29.00
2018-07-27T06:54:21.074Z,30.10
2018-07-27T06:59:24.188Z,30.20
2018-07-27T07:04:27.245Z,30.80
2018-07-27T07:09:30.307Z,31.70
2018-07-27T07:14:33.418Z,32.00
2018-07-27T07:19:36.465Z,32.50
2018-07-27T07:24:39.636Z,32.90
2018-07-27T07:29:42.775Z,32.70
2018-07-27T07:34:45.845Z,32.70
2018-07-27T07:39:48.880Z,32.00
2018-07-27T07:44:51.932Z,31.60
2018-07-27T07:49:54.970Z,31.90
2018-07-27T07:54:58.011Z,32.20
2018-07-27T08:00:01.068Z,32.30
2018-07-27T08:05:04.388Z,32.50
2018-07-27T08:10:07.464Z,32.60
2018-07-27T08:15:10.499Z,32.80
2018-07-27T08:20:13.577Z,32.40
2018-07-27T08:25:16.675Z,33.10
2018-07-27T08:30:19.707Z,34.00
2018-07-27T08:35:22.769Z,33.90
2018-07-27T08:40:25.877Z,33.30
2018-07-27T08:45:28.899Z,32.40
2018-07-27T08:50:31.965Z,31.80
2018-07-27T08:55:35.013Z,31.40
2018-07-27T09:00:49.589Z,31.20
2018-07-27T09:05:52.629Z,31.10
2018-07-27T09:10:55.686Z,30.70
2018-07-27T09:15:58.722Z,30.30
2018-07-27T09:21:01.773Z,30.20
2018-07-27T09:26:04.881Z,29.80
2018-07-27T09:31:07.976Z,29.60
2018-07-27T09:36:11.011Z,29.20
2018-07-27T09:41:14.037Z,29.40
2018-07-27T09:46:17.089Z,29.80
2018-07-27T09:51:20.811Z,30.10
2018-07-27T09:56:23.915Z,29.90
2018-07-27T10:01:28.272Z,29.90
2018-07-27T10:06:31.289Z,30.10
2018-07-27T10:11:34.376Z,30.20
2018-07-27T10:16:37.441Z,30.30
2018-07-27T10:26:43.466Z,29.40
2018-07-27T10:31:46.511Z,29.50
2018-07-27T10:36:49.577Z,29.60
2018-07-27T10:41:52.614Z,29.80
2018-07-27T10:46:55.680Z,29.50
2018-07-27T10:51:58.726Z,29.70
2018-07-27T10:57:01.814Z,29.80
2018-07-27T11:02:04.875Z,29.90
2018-07-27T11:07:08.030Z,29.80
2018-07-27T11:12:11.157Z,29.50
2018-07-27T11:17:14.289Z,29.80
2018-07-27T11:22:17.340Z,30.00
2018-07-27T11:27:20.458Z,30.00
2018-07-27T11:32:23.513Z,30.00
2018-07-27T11:37:26.689Z,30.10
2018-07-27T11:42:29.757Z,30.10
2018-07-27T11:47:32.800Z,30.00
2018-07-27T11:52:35.876Z,30.00
2018-07-27T12:02:41.844Z,30.50
2018-07-27T12:07:44.925Z,30.40
2018-07-27T12:12:48.090Z,30.40
2018-07-27T12:17:51.173Z,30.50
2018-07-27T12:22:54.320Z,30.60
2018-07-27T12:27:57.461Z,30.70
2018-07-27T12:33:00.555Z,30.90
2018-07-27T12:38:03.601Z,30.90
2018-07-27T12:43:06.700Z,30.70
2018-07-27T12:48:09.915Z,30.60
2018-07-27T12:53:12.987Z,30.40
2018-07-27T12:58:16.056Z,30.60
2018-07-27T13:03:19.180Z,30.50
2018-07-27T13:08:22.277Z,30.30
2018-07-27T13:13:25.341Z,30.40
2018-07-27T13:18:28.421Z,30.80
2018-07-27T13:23:31.515Z,30.70
2018-07-27T13:28:34.644Z,30.80
2018-07-27T13:33:37.736Z,31.00
2018-07-27T13:38:40.956Z,31.00
2018-07-27T13:43:44.073Z,30.80
2018-07-27T13:48:47.157Z,30.60
2018-07-27T13:53:50.224Z,30.70
2018-07-27T13:58:53.304Z,30.80
2018-07-27T14:03:56.335Z,30.70
2018-07-27T14:08:59.506Z,30.80
2018-07-27T14:14:02.616Z,31.00
2018-07-27T14:19:05.713Z,30.90
2018-07-27T14:24:08.919Z,31.00
2018-07-27T14:29:12.129Z,30.80
2018-07-27T14:34:15.144Z,30.60
2018-07-27T14:39:18.249Z,30.60
2018-07-27T14:44:21.357Z,31.00
2018-07-27T14:49:24.457Z,31.30
2018-07-27T14:54:27.652Z,31.20
2018-07-27T14:59:30.770Z,30.90
2018-07-27T15:04:33.859Z,30.70
2018-07-27T15:09:36.963Z,30.70
2018-07-27T15:14:40.033Z,31.00
2018-07-27T15:19:43.203Z,29.60
2018-07-27T15:24:46.262Z,28.00
2018-07-27T15:29:49.319Z,27.50
2018-07-27T15:34:52.407Z,27.40
2018-07-27T15:39:55.489Z,27.30
2018-07-27T15:44:58.558Z,27.20
2018-07-27T15:50:02.467Z,27.40
2018-07-27T15:55:05.852Z,27.50
2018-07-27T16:00:10.005Z,27.80
2018-07-27T16:05:13.109Z,28.20
2018-07-27T16:10:17.287Z,28.60
2018-07-27T16:15:20.387Z,28.90
2018-07-27T16:20:23.437Z,29.10
2018-07-27T16:25:26.520Z,29.30
2018-07-27T16:30:29.572Z,29.30
2018-07-27T16:35:32.663Z,29.40
2018-07-27T16:40:35.730Z,29.30
2018-07-27T16:50:41.655Z,29.20
2018-07-27T16:55:44.782Z,29.30
2018-07-27T17:00:47.900Z,29.40
2018-07-27T17:05:51.026Z,29.40
2018-07-27T17:10:54.193Z,29.70
2018-07-27T17:15:57.391Z,29.60
2018-07-27T17:21:00.620Z,29.50
2018-07-27T17:26:03.674Z,29.50
2018-07-27T17:31:06.858Z,29.40
2018-07-27T17:36:09.946Z,29.30
2018-07-27T17:41:13.023Z,29.00
2018-07-27T17:46:16.055Z,28.90
2018-07-27T17:51:19.152Z,28.70
2018-07-27T17:56:22.225Z,28.60
2018-07-27T18:01:25.367Z,28.40
2018-07-27T18:06:28.426Z,28.20
2018-07-27T18:11:31.553Z,28.00
2018-07-27T18:16:34.682Z,27.90
2018-07-27T18:21:38.168Z,27.70
2018-07-27T18:26:41.256Z,27.60
2018-07-27T18:31:44.433Z,27.40
2018-07-27T18:36:47.482Z,27.20
2018-07-27T18:41:50.592Z,27.10
2018-07-27T18:46:54.641Z,26.90
2018-07-27T18:51:57.705Z,26.80
2018-07-27T18:57:00.839Z,26.70
2018-07-27T19:02:04.198Z,26.60
2018-07-27T19:07:07.296Z,26.50
2018-07-27T19:12:11.044Z,26.40
2018-07-27T19:17:14.085Z,26.30
2018-07-27T19:22:17.170Z,26.10
2018-07-27T19:27:20.393Z,26.10
2018-07-27T19:32:23.488Z,26.00
2018-07-27T19:37:26.521Z,25.80
2018-07-27T19:42:29.621Z,25.70
2018-07-27T19:47:32.654Z,25.50
2018-07-27T19:52:35.755Z,25.40
2018-07-27T19:57:38.848Z,25.30
2018-07-27T20:02:41.926Z,25.20
2018-07-27T20:07:45.093Z,25.10
2018-07-27T20:12:48.208Z,25.10
2018-07-27T20:17:51.303Z,25.00
2018-07-27T20:27:57.275Z,24.70
2018-07-27T20:33:00.385Z,24.60
2018-07-27T20:38:03.475Z,24.50
2018-07-27T20:43:07.681Z,24.40
2018-07-27T20:48:10.800Z,24.30
2018-07-27T20:53:14.013Z,24.30
2018-07-27T20:58:17.041Z,24.30
2018-07-27T21:03:20.078Z,24.10
2018-07-27T21:08:23.185Z,24.00
2018-07-27T21:13:26.285Z,23.90
2018-07-27T21:18:29.347Z,23.90
2018-07-27T21:23:32.450Z,23.80
2018-07-27T21:28:35.512Z,23.70
2018-07-27T21:33:38.574Z,23.50
2018-07-27T21:38:41.617Z,23.40
2018-07-27T21:43:44.661Z,23.30
2018-07-27T21:48:47.735Z,23.30
2018-07-27T21:53:50.802Z,23.30
2018-07-27T21:58:53.911Z,23.20
2018-07-27T22:03:56.970Z,23.20
2018-07-27T22:09:00.054Z,23.20
2018-07-27T22:14:03.238Z,23.20
2018-07-27T22:19:06.394Z,23.10
2018-07-27T22:24:09.514Z,23.10
2018-07-27T22:29:12.685Z,23.00
2018-07-27T22:34:15.855Z,22.90
2018-07-27T22:39:18.924Z,22.80
2018-07-27T22:44:21.992Z,22.80
2018-07-27T22:49:25.045Z,22.70
2018-07-27T22:54:28.090Z,22.60
2018-07-27T22:59:31.185Z,22.50
2018-07-27T23:04:34.316Z,22.60
2018-07-27T23:09:37.457Z,22.50
2018-07-27T23:14:40.644Z,22.40
2018-07-27T23:19:43.697Z,22.40
2018-07-27T23:24:46.805Z,22.40
2018-07-27T23:29:49.981Z,22.30
2018-07-27T23:34:53.058Z,22.30
2018-07-27T23:39:56.128Z,22.20
2018-07-27T23:44:59.237Z,22.20
2018-07-27T23:50:02.294Z,22.10
2018-07-27T23:55:05.404Z,22.00
